sensor_id;sensor_type;location;lat;lon;timestamp;P1;durP1;ratioP1;P2;durP2;ratioP2
25249;SDS011;13201;51.148;13.738;2023-02-12T00:02:06;25.88;;;12.38;;
25249;SDS011;13201;51.148;13.738;2023-02-12T00:04:32;28.42;;;12.65;;
25249;SDS011;13201;51.148;13.738;2023-02-12T00:06:58;22.20;;;11.13;;
25249;SDS011;13201;51.148;13.738;2023-02-12T00:09:24;25.50;;;11.63;;
25249;SDS011;13201;51.148;13.738;2023-02-12T00:11:50;27.27;;;12.35;;
25249;SDS011;13201;51.148;13.738;2023-02-12T00:14:15;24.50;;;11.60;;
25249;SDS011;13201;51.148;13.738;2023-02-12T00:16:41;26.83;;;12.60;;
25249;SDS011;13201;51.148;13.738;2023-02-12T00:19:07;25.13;;;12.55;;
25249;SDS011;13201;51.148;13.738;2023-02-12T00:21:34;27.70;;;11.97;;
25249;SDS011;13201;51.148;13.738;2023-02-12T00:24:00;25.25;;;11.45;;
25249;SDS011;13201;51.148;13.738;2023-02-12T00:26:28;28.88;;;12.27;;
25249;SDS011;13201;51.148;13.738;2023-02-12T00:28:54;26.25;;;12.85;;
25249;SDS011;13201;51.148;13.738;2023-02-12T00:31:21;27.88;;;12.63;;
25249;SDS011;13201;51.148;13.738;2023-02-12T00:33:49;28.50;;;12.45;;
25249;SDS011;13201;51.148;13.738;2023-02-12T00:36:19;19.90;;;9.53;;
25249;SDS011;13201;51.148;13.738;2023-02-12T00:38:46;25.77;;;12.27;;
25249;SDS011;13201;51.148;13.738;2023-02-12T00:43:39;27.27;;;11.67;;
25249;SDS011;13201;51.148;13.738;2023-02-12T00:46:05;22.90;;;11.15;;
25249;SDS011;13201;51.148;13.738;2023-02-12T00:48:31;25.25;;;13.10;;
25249;SDS011;13201;51.148;13.738;2023-02-12T00:50:57;26.90;;;12.18;;
25249;SDS011;13201;51.148;13.738;2023-02-12T00:53:23;29.10;;;12.75;;
25249;SDS011;13201;51.148;13.738;2023-02-12T00:55:49;25.70;;;12.57;;
25249;SDS011;13201;51.148;13.738;2023-02-12T00:58:15;27.73;;;11.93;;
25249;SDS011;13201;51.148;13.738;2023-02-12T01:00:41;31.00;;;13.38;;
25249;SDS011;13201;51.148;13.738;2023-02-12T01:03:07;31.40;;;12.85;;
25249;SDS011;13201;51.148;13.738;2023-02-12T01:31:23;32.95;;;13.18;;
25249;SDS011;13201;51.148;13.738;2023-02-12T01:33:51;30.60;;;13.38;;
25249;SDS011;13201;51.148;13.738;2023-02-12T01:36:18;29.00;;;13.10;;
25249;SDS011;13201;51.148;13.738;2023-02-12T01:38:44;34.15;;;13.80;;
25249;SDS011;13201;51.148;13.738;2023-02-12T01:41:11;33.78;;;13.90;;
25249;SDS011;13201;51.148;13.738;2023-02-12T01:43:39;33.47;;;13.18;;
25249;SDS011;13201;51.148;13.738;2023-02-12T01:46:05;28.70;;;12.80;;
25249;SDS011;13201;51.148;13.738;2023-02-12T01:48:37;26.77;;;12.98;;
25249;SDS011;13201;51.148;13.738;2023-02-12T01:51:06;30.60;;;12.50;;
25249;SDS011;13201;51.148;13.738;2023-02-12T01:53:37;31.60;;;13.00;;
25249;SDS011;13201;51.148;13.738;2023-02-12T01:56:07;29.48;;;12.00;;
25249;SDS011;13201;51.148;13.738;2023-02-12T01:58:35;28.00;;;13.00;;
25249;SDS011;13201;51.148;13.738;2023-02-12T02:01:05;27.33;;;12.15;;
25249;SDS011;13201;51.148;13.738;2023-02-12T02:03:35;28.05;;;13.00;;
25249;SDS011;13201;51.148;13.738;2023-02-12T02:06:23;29.88;;;13.50;;
25249;SDS011;13201;51.148;13.738;2023-02-12T02:08:52;29.05;;;12.40;;
25249;SDS011;13201;51.148;13.738;2023-02-12T02:14:02;24.50;;;11.45;;
25249;SDS011;13201;51.148;13.738;2023-02-12T02:16:49;29.27;;;12.05;;
25249;SDS011;13201;51.148;13.738;2023-02-12T02:36:26;24.73;;;12.05;;
25249;SDS011;13201;51.148;13.738;2023-02-12T02:39:02;31.70;;;12.93;;
25249;SDS011;13201;51.148;13.738;2023-02-12T02:43:58;30.42;;;13.30;;
25249;SDS011;13201;51.148;13.738;2023-02-12T02:46:33;33.20;;;12.88;;
25249;SDS011;13201;51.148;13.738;2023-02-12T02:49:06;28.60;;;12.00;;
25249;SDS011;13201;51.148;13.738;2023-02-12T02:51:41;27.00;;;11.30;;
25249;SDS011;13201;51.148;13.738;2023-02-12T02:56:40;25.27;;;11.77;;
25249;SDS011;13201;51.148;13.738;2023-02-12T02:59:17;28.35;;;12.30;;
25249;SDS011;13201;51.148;13.738;2023-02-12T03:02:06;26.05;;;11.40;;
25249;SDS011;13201;51.148;13.738;2023-02-12T03:04:39;25.67;;;11.25;;
25249;SDS011;13201;51.148;13.738;2023-02-12T03:07:09;26.85;;;11.55;;
25249;SDS011;13201;51.148;13.738;2023-02-12T03:09:42;29.52;;;12.30;;
25249;SDS011;13201;51.148;13.738;2023-02-12T03:12:26;28.45;;;11.15;;
25249;SDS011;13201;51.148;13.738;2023-02-12T03:15:07;26.85;;;11.20;;
25249;SDS011;13201;51.148;13.738;2023-02-12T03:17:39;25.88;;;11.35;;
25249;SDS011;13201;51.148;13.738;2023-02-12T03:20:12;27.20;;;10.82;;
25249;SDS011;13201;51.148;13.738;2023-02-12T03:22:42;20.35;;;10.52;;
25249;SDS011;13201;51.148;13.738;2023-02-12T03:25:37;25.15;;;11.13;;
25249;SDS011;13201;51.148;13.738;2023-02-12T03:28:15;26.83;;;10.90;;
25249;SDS011;13201;51.148;13.738;2023-02-12T03:30:47;24.42;;;11.07;;
25249;SDS011;13201;51.148;13.738;2023-02-12T03:33:48;25.65;;;10.40;;
25249;SDS011;13201;51.148;13.738;2023-02-12T03:38:45;22.50;;;10.63;;
25249;SDS011;13201;51.148;13.738;2023-02-12T03:41:18;22.50;;;10.98;;
25249;SDS011;13201;51.148;13.738;2023-02-12T03:46:56;27.85;;;11.77;;
25249;SDS011;13201;51.148;13.738;2023-02-12T03:49:31;25.30;;;11.50;;
25249;SDS011;13201;51.148;13.738;2023-02-12T03:52:03;22.77;;;11.00;;
25249;SDS011;13201;51.148;13.738;2023-02-12T03:54:29;24.70;;;10.80;;
25249;SDS011;13201;51.148;13.738;2023-02-12T03:57:17;26.85;;;11.90;;
25249;SDS011;13201;51.148;13.738;2023-02-12T03:59:44;31.30;;;12.63;;
25249;SDS011;13201;51.148;13.738;2023-02-12T04:02:10;30.27;;;12.95;;
25249;SDS011;13201;51.148;13.738;2023-02-12T04:04:36;25.80;;;11.48;;
25249;SDS011;13201;51.148;13.738;2023-02-12T04:07:02;24.98;;;12.00;;
25249;SDS011;13201;51.148;13.738;2023-02-12T04:09:28;28.30;;;12.48;;
25249;SDS011;13201;51.148;13.738;2023-02-12T04:22:53;30.05;;;14.05;;
25249;SDS011;13201;51.148;13.738;2023-02-12T04:31:29;30.23;;;13.13;;
25249;SDS011;13201;51.148;13.738;2023-02-12T04:34:07;29.13;;;13.10;;
25249;SDS011;13201;51.148;13.738;2023-02-12T04:36:40;34.22;;;14.23;;
25249;SDS011;13201;51.148;13.738;2023-02-12T04:39:17;30.83;;;13.98;;
25249;SDS011;13201;51.148;13.738;2023-02-12T04:41:46;30.95;;;13.55;;
25249;SDS011;13201;51.148;13.738;2023-02-12T04:44:21;34.53;;;13.57;;
25249;SDS011;13201;51.148;13.738;2023-02-12T04:46:48;31.27;;;14.10;;
25249;SDS011;13201;51.148;13.738;2023-02-12T04:49:15;27.53;;;12.23;;
25249;SDS011;13201;51.148;13.738;2023-02-12T04:51:43;27.30;;;13.10;;
25249;SDS011;13201;51.148;13.738;2023-02-12T04:54:09;30.50;;;13.60;;
25249;SDS011;13201;51.148;13.738;2023-02-12T04:56:34;31.52;;;13.93;;
25249;SDS011;13201;51.148;13.738;2023-02-12T04:59:00;32.88;;;13.80;;
25249;SDS011;13201;51.148;13.738;2023-02-12T05:01:26;27.83;;;12.63;;
25249;SDS011;13201;51.148;13.738;2023-02-12T05:03:52;30.65;;;13.20;;
25249;SDS011;13201;51.148;13.738;2023-02-12T05:06:18;31.02;;;13.45;;
25249;SDS011;13201;51.148;13.738;2023-02-12T05:08:44;28.58;;;13.05;;
25249;SDS011;13201;51.148;13.738;2023-02-12T05:11:10;28.70;;;12.63;;
25249;SDS011;13201;51.148;13.738;2023-02-12T05:13:36;28.65;;;12.55;;
25249;SDS011;13201;51.148;13.738;2023-02-12T05:16:03;31.40;;;13.00;;
25249;SDS011;13201;51.148;13.738;2023-02-12T05:18:32;29.67;;;12.07;;
25249;SDS011;13201;51.148;13.738;2023-02-12T05:23:26;33.65;;;12.80;;
25249;SDS011;13201;51.148;13.738;2023-02-12T05:25:59;28.42;;;12.63;;
25249;SDS011;13201;51.148;13.738;2023-02-12T05:28:27;28.67;;;12.43;;
25249;SDS011;13201;51.148;13.738;2023-02-12T05:30:53;31.80;;;13.27;;
25249;SDS011;13201;51.148;13.738;2023-02-12T05:33:19;30.98;;;13.25;;
25249;SDS011;13201;51.148;13.738;2023-02-12T05:35:45;31.85;;;12.80;;
25249;SDS011;13201;51.148;13.738;2023-02-12T05:38:11;26.33;;;11.70;;
25249;SDS011;13201;51.148;13.738;2023-02-12T05:40:37;28.58;;;12.93;;
25249;SDS011;13201;51.148;13.738;2023-02-12T05:43:04;29.30;;;12.52;;
25249;SDS011;13201;51.148;13.738;2023-02-12T05:45:31;32.57;;;12.93;;
25249;SDS011;13201;51.148;13.738;2023-02-12T05:47:57;27.55;;;12.60;;
25249;SDS011;13201;51.148;13.738;2023-02-12T05:50:22;31.08;;;12.60;;
25249;SDS011;13201;51.148;13.738;2023-02-12T05:52:48;29.17;;;13.02;;
25249;SDS011;13201;51.148;13.738;2023-02-12T05:55:14;28.75;;;13.07;;
25249;SDS011;13201;51.148;13.738;2023-02-12T05:57:39;25.13;;;11.80;;
25249;SDS011;13201;51.148;13.738;2023-02-12T06:00:06;31.55;;;12.20;;
25249;SDS011;13201;51.148;13.738;2023-02-12T06:02:33;28.80;;;12.27;;
25249;SDS011;13201;51.148;13.738;2023-02-12T06:04:59;29.67;;;13.00;;
25249;SDS011;13201;51.148;13.738;2023-02-12T06:07:25;25.73;;;12.23;;
25249;SDS011;13201;51.148;13.738;2023-02-12T06:09:51;26.67;;;12.40;;
25249;SDS011;13201;51.148;13.738;2023-02-12T06:12:17;28.65;;;12.38;;
25249;SDS011;13201;51.148;13.738;2023-02-12T06:14:42;29.17;;;12.77;;
25249;SDS011;13201;51.148;13.738;2023-02-12T06:17:08;27.88;;;12.68;;
25249;SDS011;13201;51.148;13.738;2023-02-12T06:19:35;29.83;;;12.93;;
25249;SDS011;13201;51.148;13.738;2023-02-12T06:22:00;31.77;;;12.15;;
25249;SDS011;13201;51.148;13.738;2023-02-12T06:24:26;31.13;;;12.40;;
25249;SDS011;13201;51.148;13.738;2023-02-12T06:26:52;30.13;;;12.60;;
25249;SDS011;13201;51.148;13.738;2023-02-12T06:29:18;28.33;;;12.43;;
25249;SDS011;13201;51.148;13.738;2023-02-12T06:31:44;30.27;;;12.25;;
25249;SDS011;13201;51.148;13.738;2023-02-12T06:34:11;29.53;;;12.40;;
25249;SDS011;13201;51.148;13.738;2023-02-12T06:36:39;25.33;;;11.52;;
25249;SDS011;13201;51.148;13.738;2023-02-12T06:39:09;28.15;;;12.25;;
25249;SDS011;13201;51.148;13.738;2023-02-12T06:44:01;27.87;;;11.47;;
25249;SDS011;13201;51.148;13.738;2023-02-12T06:46:27;25.70;;;11.57;;
25249;SDS011;13201;51.148;13.738;2023-02-12T06:48:53;27.30;;;11.60;;
25249;SDS011;13201;51.148;13.738;2023-02-12T06:51:20;27.73;;;11.52;;
25249;SDS011;13201;51.148;13.738;2023-02-12T06:56:13;21.60;;;10.23;;
25249;SDS011;13201;51.148;13.738;2023-02-12T06:58:39;24.33;;;11.07;;
25249;SDS011;13201;51.148;13.738;2023-02-12T07:01:08;29.35;;;12.30;;
25249;SDS011;13201;51.148;13.738;2023-02-12T07:03:37;24.05;;;10.77;;
25249;SDS011;13201;51.148;13.738;2023-02-12T07:06:06;26.77;;;11.20;;
25249;SDS011;13201;51.148;13.738;2023-02-12T07:08:33;26.95;;;11.10;;
25249;SDS011;13201;51.148;13.738;2023-02-12T07:10:59;24.70;;;10.63;;
25249;SDS011;13201;51.148;13.738;2023-02-12T07:13:25;22.77;;;10.52;;
25249;SDS011;13201;51.148;13.738;2023-02-12T07:15:50;26.33;;;11.45;;
25249;SDS011;13201;51.148;13.738;2023-02-12T07:18:16;26.17;;;11.35;;
25249;SDS011;13201;51.148;13.738;2023-02-12T07:20:41;22.20;;;10.85;;
25249;SDS011;13201;51.148;13.738;2023-02-12T07:23:10;22.25;;;10.98;;
25249;SDS011;13201;51.148;13.738;2023-02-12T07:25:36;28.58;;;12.07;;
25249;SDS011;13201;51.148;13.738;2023-02-12T07:28:02;26.80;;;11.45;;
25249;SDS011;13201;51.148;13.738;2023-02-12T07:30:28;28.00;;;11.47;;
25249;SDS011;13201;51.148;13.738;2023-02-12T07:32:54;24.80;;;10.88;;
25249;SDS011;13201;51.148;13.738;2023-02-12T07:35:19;27.42;;;11.93;;
25249;SDS011;13201;51.148;13.738;2023-02-12T07:37:45;25.90;;;10.80;;
25249;SDS011;13201;51.148;13.738;2023-02-12T07:40:11;25.40;;;11.50;;
25249;SDS011;13201;51.148;13.738;2023-02-12T07:42:37;26.98;;;11.48;;
25249;SDS011;13201;51.148;13.738;2023-02-12T07:45:02;29.42;;;11.85;;
25249;SDS011;13201;51.148;13.738;2023-02-12T07:47:29;24.75;;;10.93;;
25249;SDS011;13201;51.148;13.738;2023-02-12T07:49:54;24.90;;;10.57;;
25249;SDS011;13201;51.148;13.738;2023-02-12T07:52:20;24.45;;;10.90;;
25249;SDS011;13201;51.148;13.738;2023-02-12T07:54:46;24.58;;;10.43;;
25249;SDS011;13201;51.148;13.738;2023-02-12T07:57:12;26.05;;;11.15;;
25249;SDS011;13201;51.148;13.738;2023-02-12T07:59:37;27.17;;;11.45;;
25249;SDS011;13201;51.148;13.738;2023-02-12T08:02:03;24.35;;;10.88;;
25249;SDS011;13201;51.148;13.738;2023-02-12T08:04:29;22.50;;;10.52;;
25249;SDS011;13201;51.148;13.738;2023-02-12T08:06:54;22.45;;;11.13;;
25249;SDS011;13201;51.148;13.738;2023-02-12T08:09:22;21.57;;;10.30;;
25249;SDS011;13201;51.148;13.738;2023-02-12T08:11:49;24.15;;;11.25;;
25249;SDS011;13201;51.148;13.738;2023-02-12T08:14:16;23.93;;;10.97;;
25249;SDS011;13201;51.148;13.738;2023-02-12T08:16:44;24.90;;;11.45;;
25249;SDS011;13201;51.148;13.738;2023-02-12T08:21:37;23.95;;;10.32;;
25249;SDS011;13201;51.148;13.738;2023-02-12T08:24:03;23.20;;;11.03;;
25249;SDS011;13201;51.148;13.738;2023-02-12T08:26:35;22.33;;;10.83;;
25249;SDS011;13201;51.148;13.738;2023-02-12T08:31:30;26.05;;;11.18;;
25249;SDS011;13201;51.148;13.738;2023-02-12T08:33:58;24.23;;;11.23;;
25249;SDS011;13201;51.148;13.738;2023-02-12T08:36:25;25.77;;;11.77;;
25249;SDS011;13201;51.148;13.738;2023-02-12T08:38:59;23.77;;;11.05;;
25249;SDS011;13201;51.148;13.738;2023-02-12T08:41:26;24.60;;;11.05;;
25249;SDS011;13201;51.148;13.738;2023-02-12T08:43:53;25.80;;;11.07;;
25249;SDS011;13201;51.148;13.738;2023-02-12T08:46:22;25.27;;;11.38;;
25249;SDS011;13201;51.148;13.738;2023-02-12T08:48:53;27.50;;;11.77;;
25249;SDS011;13201;51.148;13.738;2023-02-12T08:51:21;24.70;;;10.68;;
25249;SDS011;13201;51.148;13.738;2023-02-12T08:53:50;27.17;;;11.65;;
25249;SDS011;13201;51.148;13.738;2023-02-12T08:56:17;23.83;;;10.85;;
25249;SDS011;13201;51.148;13.738;2023-02-12T08:58:44;24.27;;;11.40;;
25249;SDS011;13201;51.148;13.738;2023-02-12T09:01:12;24.25;;;11.07;;
25249;SDS011;13201;51.148;13.738;2023-02-12T09:03:48;24.13;;;10.32;;
25249;SDS011;13201;51.148;13.738;2023-02-12T09:06:15;25.95;;;10.82;;
25249;SDS011;13201;51.148;13.738;2023-02-12T09:08:42;22.67;;;10.57;;
25249;SDS011;13201;51.148;13.738;2023-02-12T09:11:10;27.30;;;10.98;;
25249;SDS011;13201;51.148;13.738;2023-02-12T09:13:38;25.65;;;10.38;;
25249;SDS011;13201;51.148;13.738;2023-02-12T09:16:04;23.15;;;9.93;;
25249;SDS011;13201;51.148;13.738;2023-02-12T09:18:31;21.87;;;10.30;;
25249;SDS011;13201;51.148;13.738;2023-02-12T09:21:01;24.17;;;10.70;;
25249;SDS011;13201;51.148;13.738;2023-02-12T09:23:32;20.92;;;9.95;;
25249;SDS011;13201;51.148;13.738;2023-02-12T09:25:58;19.95;;;8.95;;
25249;SDS011;13201;51.148;13.738;2023-02-12T09:28:27;21.77;;;9.77;;
25249;SDS011;13201;51.148;13.738;2023-02-12T09:30:52;19.38;;;9.32;;
25249;SDS011;13201;51.148;13.738;2023-02-12T09:33:18;21.83;;;10.40;;
25249;SDS011;13201;51.148;13.738;2023-02-12T09:35:44;22.30;;;9.43;;
25249;SDS011;13201;51.148;13.738;2023-02-12T09:38:09;19.90;;;9.02;;
25249;SDS011;13201;51.148;13.738;2023-02-12T09:46:04;22.45;;;9.60;;
25249;SDS011;13201;51.148;13.738;2023-02-12T09:48:41;23.08;;;9.48;;
25249;SDS011;13201;51.148;13.738;2023-02-12T09:51:16;18.50;;;9.07;;
25249;SDS011;13201;51.148;13.738;2023-02-12T09:53:43;19.27;;;8.45;;
25249;SDS011;13201;51.148;13.738;2023-02-12T09:56:12;23.52;;;9.32;;
25249;SDS011;13201;51.148;13.738;2023-02-12T09:58:46;17.33;;;8.48;;
25249;SDS011;13201;51.148;13.738;2023-02-12T10:01:18;19.60;;;8.75;;
25249;SDS011;13201;51.148;13.738;2023-02-12T10:03:46;18.02;;;9.00;;
25249;SDS011;13201;51.148;13.738;2023-02-12T10:06:14;23.70;;;9.70;;
25249;SDS011;13201;51.148;13.738;2023-02-12T10:13:50;23.45;;;10.90;;
25249;SDS011;13201;51.148;13.738;2023-02-12T10:27:38;24.25;;;9.20;;
25249;SDS011;13201;51.148;13.738;2023-02-12T10:30:51;16.85;;;7.50;;
25249;SDS011;13201;51.148;13.738;2023-02-12T10:33:14;19.35;;;7.47;;
25249;SDS011;13201;51.148;13.738;2023-02-12T10:35:47;14.50;;;6.95;;
25249;SDS011;13201;51.148;13.738;2023-02-12T10:38:22;15.88;;;7.30;;
25249;SDS011;13201;51.148;13.738;2023-02-12T10:40:53;16.35;;;6.75;;
25249;SDS011;13201;51.148;13.738;2023-02-12T10:43:22;17.80;;;7.10;;
25249;SDS011;13201;51.148;13.738;2023-02-12T10:45:48;18.20;;;7.15;;
25249;SDS011;13201;51.148;13.738;2023-02-12T10:53:21;16.92;;;7.43;;
25249;SDS011;13201;51.148;13.738;2023-02-12T10:55:48;18.30;;;5.95;;
25249;SDS011;13201;51.148;13.738;2023-02-12T10:58:18;12.73;;;5.80;;
25249;SDS011;13201;51.148;13.738;2023-02-12T11:00:46;14.35;;;6.15;;
25249;SDS011;13201;51.148;13.738;2023-02-12T11:03:21;14.70;;;5.40;;
25249;SDS011;13201;51.148;13.738;2023-02-12T11:05:48;15.00;;;5.38;;
25249;SDS011;13201;51.148;13.738;2023-02-12T11:08:28;14.07;;;5.88;;
25249;SDS011;13201;51.148;13.738;2023-02-12T11:11:41;16.38;;;5.40;;
25249;SDS011;13201;51.148;13.738;2023-02-12T11:16:45;19.95;;;5.22;;
25249;SDS011;13201;51.148;13.738;2023-02-12T11:19:19;16.52;;;5.32;;
25249;SDS011;13201;51.148;13.738;2023-02-12T11:21:49;16.58;;;5.28;;
25249;SDS011;13201;51.148;13.738;2023-02-12T11:26:50;12.27;;;6.07;;
25249;SDS011;13201;51.148;13.738;2023-02-12T11:29:17;11.13;;;4.63;;
25249;SDS011;13201;51.148;13.738;2023-02-12T11:32:01;12.02;;;4.88;;
25249;SDS011;13201;51.148;13.738;2023-02-12T11:34:29;13.18;;;4.70;;
25249;SDS011;13201;51.148;13.738;2023-02-12T11:36:55;11.63;;;4.43;;
25249;SDS011;13201;51.148;13.738;2023-02-12T11:39:28;13.40;;;3.60;;
25249;SDS011;13201;51.148;13.738;2023-02-12T11:42:13;10.88;;;3.67;;
25249;SDS011;13201;51.148;13.738;2023-02-12T11:44:51;7.93;;;3.30;;
25249;SDS011;13201;51.148;13.738;2023-02-12T11:47:22;14.50;;;4.72;;
25249;SDS011;13201;51.148;13.738;2023-02-12T11:49:55;12.48;;;4.03;;
25249;SDS011;13201;51.148;13.738;2023-02-12T11:52:28;9.88;;;3.33;;
25249;SDS011;13201;51.148;13.738;2023-02-12T11:54:58;12.38;;;4.65;;
25249;SDS011;13201;51.148;13.738;2023-02-12T11:57:43;13.95;;;4.35;;
25249;SDS011;13201;51.148;13.738;2023-02-12T12:05:47;11.85;;;4.40;;
25249;SDS011;13201;51.148;13.738;2023-02-12T12:11:24;11.90;;;4.55;;
25249;SDS011;13201;51.148;13.738;2023-02-12T12:16:48;13.02;;;4.57;;
25249;SDS011;13201;51.148;13.738;2023-02-12T12:19:58;10.90;;;4.50;;
25249;SDS011;13201;51.148;13.738;2023-02-12T12:25:25;9.75;;;3.80;;
25249;SDS011;13201;51.148;13.738;2023-02-12T12:33:05;9.48;;;3.60;;
25249;SDS011;13201;51.148;13.738;2023-02-12T12:36:01;10.02;;;3.70;;
25249;SDS011;13201;51.148;13.738;2023-02-12T12:49:43;14.45;;;4.40;;
25249;SDS011;13201;51.148;13.738;2023-02-12T13:01:04;17.02;;;5.25;;
25249;SDS011;13201;51.148;13.738;2023-02-12T13:09:47;9.93;;;4.63;;
25249;SDS011;13201;51.148;13.738;2023-02-12T13:14:26;16.05;;;5.18;;
25249;SDS011;13201;51.148;13.738;2023-02-12T13:27:58;16.80;;;4.63;;
25249;SDS011;13201;51.148;13.738;2023-02-12T13:30:37;18.30;;;7.05;;
25249;SDS011;13201;51.148;13.738;2023-02-12T13:35:52;15.30;;;5.50;;
25249;SDS011;13201;51.148;13.738;2023-02-12T13:38:25;16.30;;;5.70;;
25249;SDS011;13201;51.148;13.738;2023-02-12T13:41:02;12.13;;;5.55;;
25249;SDS011;13201;51.148;13.738;2023-02-12T13:57:13;14.65;;;5.15;;
25249;SDS011;13201;51.148;13.738;2023-02-12T13:59:47;11.25;;;4.57;;
25249;SDS011;13201;51.148;13.738;2023-02-12T14:04:58;6.97;;;3.92;;
25249;SDS011;13201;51.148;13.738;2023-02-12T14:10:30;11.65;;;4.60;;
25249;SDS011;13201;51.148;13.738;2023-02-12T14:13:17;10.57;;;4.13;;
25249;SDS011;13201;51.148;13.738;2023-02-12T14:15:52;13.57;;;4.13;;
25249;SDS011;13201;51.148;13.738;2023-02-12T14:23:41;9.27;;;4.20;;
25249;SDS011;13201;51.148;13.738;2023-02-12T14:26:17;9.40;;;4.35;;
25249;SDS011;13201;51.148;13.738;2023-02-12T14:31:25;9.20;;;4.60;;
25249;SDS011;13201;51.148;13.738;2023-02-12T14:38:56;7.25;;;3.88;;
25249;SDS011;13201;51.148;13.738;2023-02-12T14:41:26;10.10;;;4.10;;
25249;SDS011;13201;51.148;13.738;2023-02-12T14:49:38;8.00;;;3.70;;
25249;SDS011;13201;51.148;13.738;2023-02-12T14:54:54;7.47;;;3.85;;
25249;SDS011;13201;51.148;13.738;2023-02-12T14:57:29;7.95;;;4.13;;
25249;SDS011;13201;51.148;13.738;2023-02-12T15:00:25;7.15;;;4.07;;
25249;SDS011;13201;51.148;13.738;2023-02-12T15:10:27;12.15;;;5.50;;
25249;SDS011;13201;51.148;13.738;2023-02-12T15:13:02;11.55;;;5.63;;
25249;SDS011;13201;51.148;13.738;2023-02-12T15:15:50;12.07;;;6.40;;
25249;SDS011;13201;51.148;13.738;2023-02-12T15:18:23;10.65;;;4.68;;
25249;SDS011;13201;51.148;13.738;2023-02-12T15:21:19;8.55;;;4.10;;
25249;SDS011;13201;51.148;13.738;2023-02-12T15:24:02;10.32;;;4.60;;
25249;SDS011;13201;51.148;13.738;2023-02-12T15:26:43;9.90;;;4.85;;
25249;SDS011;13201;51.148;13.738;2023-02-12T15:29:22;12.68;;;5.05;;
25249;SDS011;13201;51.148;13.738;2023-02-12T15:32:04;13.98;;;6.38;;
25249;SDS011;13201;51.148;13.738;2023-02-12T15:34:32;11.07;;;5.38;;
25249;SDS011;13201;51.148;13.738;2023-02-12T15:37:05;15.30;;;7.50;;
25249;SDS011;13201;51.148;13.738;2023-02-12T15:39:42;16.17;;;6.57;;
25249;SDS011;13201;51.148;13.738;2023-02-12T15:47:34;9.40;;;4.88;;
25249;SDS011;13201;51.148;13.738;2023-02-12T15:50:00;10.88;;;4.80;;
25249;SDS011;13201;51.148;13.738;2023-02-12T15:52:33;11.45;;;5.28;;
25249;SDS011;13201;51.148;13.738;2023-02-12T15:55:02;12.05;;;5.35;;
25249;SDS011;13201;51.148;13.738;2023-02-12T15:57:30;11.25;;;5.40;;
25249;SDS011;13201;51.148;13.738;2023-02-12T16:00:00;11.32;;;5.78;;
25249;SDS011;13201;51.148;13.738;2023-02-12T16:02:31;12.93;;;5.95;;
25249;SDS011;13201;51.148;13.738;2023-02-12T16:04:57;12.63;;;5.75;;
25249;SDS011;13201;51.148;13.738;2023-02-12T16:07:27;11.80;;;6.35;;
25249;SDS011;13201;51.148;13.738;2023-02-12T16:09:56;12.45;;;5.90;;
25249;SDS011;13201;51.148;13.738;2023-02-12T16:12:23;13.40;;;6.03;;
25249;SDS011;13201;51.148;13.738;2023-02-12T16:14:53;11.88;;;6.28;;
25249;SDS011;13201;51.148;13.738;2023-02-12T16:25:04;16.45;;;7.43;;
25249;SDS011;13201;51.148;13.738;2023-02-12T16:30:26;19.10;;;7.45;;
25249;SDS011;13201;51.148;13.738;2023-02-12T16:32:57;14.25;;;6.97;;
25249;SDS011;13201;51.148;13.738;2023-02-12T16:35:28;17.90;;;7.70;;
25249;SDS011;13201;51.148;13.738;2023-02-12T16:43:39;12.70;;;7.03;;
25249;SDS011;13201;51.148;13.738;2023-02-12T16:46:05;14.63;;;7.63;;
25249;SDS011;13201;51.148;13.738;2023-02-12T16:51:27;18.73;;;8.50;;
25249;SDS011;13201;51.148;13.738;2023-02-12T16:53:56;16.38;;;7.97;;
25249;SDS011;13201;51.148;13.738;2023-02-12T16:56:25;12.80;;;6.72;;
25249;SDS011;13201;51.148;13.738;2023-02-12T16:58:54;13.75;;;6.70;;
25249;SDS011;13201;51.148;13.738;2023-02-12T17:01:25;12.82;;;6.90;;
25249;SDS011;13201;51.148;13.738;2023-02-12T17:03:55;14.32;;;7.22;;
25249;SDS011;13201;51.148;13.738;2023-02-12T17:06:24;15.07;;;6.60;;
25249;SDS011;13201;51.148;13.738;2023-02-12T17:08:52;12.55;;;6.50;;
25249;SDS011;13201;51.148;13.738;2023-02-12T17:11:18;12.23;;;6.82;;
25249;SDS011;13201;51.148;13.738;2023-02-12T17:13:46;12.67;;;6.43;;
25249;SDS011;13201;51.148;13.738;2023-02-12T17:16:13;11.85;;;6.38;;
25249;SDS011;13201;51.148;13.738;2023-02-12T17:18:39;19.58;;;9.30;;
25249;SDS011;13201;51.148;13.738;2023-02-12T17:24:19;17.05;;;7.70;;
25249;SDS011;13201;51.148;13.738;2023-02-12T17:29:14;11.55;;;6.50;;
25249;SDS011;13201;51.148;13.738;2023-02-12T17:31:43;14.25;;;6.78;;
25249;SDS011;13201;51.148;13.738;2023-02-12T17:34:09;13.13;;;6.80;;
25249;SDS011;13201;51.148;13.738;2023-02-12T17:36:35;13.27;;;6.65;;
25249;SDS011;13201;51.148;13.738;2023-02-12T17:39:02;14.10;;;6.82;;
25249;SDS011;13201;51.148;13.738;2023-02-12T17:41:29;14.43;;;6.55;;
25249;SDS011;13201;51.148;13.738;2023-02-12T17:43:56;13.55;;;6.97;;
25249;SDS011;13201;51.148;13.738;2023-02-12T17:46:22;12.45;;;6.47;;
25249;SDS011;13201;51.148;13.738;2023-02-12T17:48:49;14.95;;;7.05;;
25249;SDS011;13201;51.148;13.738;2023-02-12T17:51:15;14.57;;;6.93;;
25249;SDS011;13201;51.148;13.738;2023-02-12T17:53:40;13.10;;;6.93;;
25249;SDS011;13201;51.148;13.738;2023-02-12T17:56:10;14.63;;;6.93;;
25249;SDS011;13201;51.148;13.738;2023-02-12T17:58:37;16.52;;;7.13;;
25249;SDS011;13201;51.148;13.738;2023-02-12T18:01:08;15.65;;;7.13;;
25249;SDS011;13201;51.148;13.738;2023-02-12T18:03:35;18.02;;;9.20;;
25249;SDS011;13201;51.148;13.738;2023-02-12T18:06:01;19.83;;;8.37;;
25249;SDS011;13201;51.148;13.738;2023-02-12T18:08:27;17.25;;;8.07;;
25249;SDS011;13201;51.148;13.738;2023-02-12T18:10:53;14.97;;;7.50;;
25249;SDS011;13201;51.148;13.738;2023-02-12T18:13:19;17.27;;;8.65;;
25249;SDS011;13201;51.148;13.738;2023-02-12T18:15:45;17.58;;;8.05;;
25249;SDS011;13201;51.148;13.738;2023-02-12T18:18:10;18.58;;;8.00;;
25249;SDS011;13201;51.148;13.738;2023-02-12T18:20:38;18.23;;;8.27;;
25249;SDS011;13201;51.148;13.738;2023-02-12T18:23:05;20.02;;;9.02;;
25249;SDS011;13201;51.148;13.738;2023-02-12T18:25:32;18.92;;;8.73;;
25249;SDS011;13201;51.148;13.738;2023-02-12T18:27:59;19.27;;;8.18;;
25249;SDS011;13201;51.148;13.738;2023-02-12T18:30:27;18.05;;;8.00;;
25249;SDS011;13201;51.148;13.738;2023-02-12T18:32:53;15.70;;;7.40;;
25249;SDS011;13201;51.148;13.738;2023-02-12T18:35:18;16.63;;;8.02;;
25249;SDS011;13201;51.148;13.738;2023-02-12T18:37:44;18.10;;;8.30;;
25249;SDS011;13201;51.148;13.738;2023-02-12T18:40:12;18.83;;;8.80;;
25249;SDS011;13201;51.148;13.738;2023-02-12T18:42:38;16.83;;;7.27;;
25249;SDS011;13201;51.148;13.738;2023-02-12T18:45:04;19.30;;;8.15;;
25249;SDS011;13201;51.148;13.738;2023-02-12T18:47:31;21.75;;;8.38;;
25249;SDS011;13201;51.148;13.738;2023-02-12T18:49:57;17.40;;;8.00;;
25249;SDS011;13201;51.148;13.738;2023-02-12T18:52:22;19.58;;;8.15;;